Time;durP1;ratioP1;P1;durP2;ratioP2;P2;SDS_P1;SDS_P2;PMS_P1;PMS_P2;Temp;Humidity;BMP_temperature;BMP_pressure;BME280_temperature;BME280_humidity;BME280_pressure;Samples;Min_cycle;Max_cycle;Signal;HPM_P1;HPM_P2
2020/12/24 00:00:11;;;;;;;1.27;1.17;;;10.60;74.40;;;;;;5011149;28;20052;-78
2020/12/24 00:02:37;;;;;;;1.17;1.08;;;10.50;74.30;;;;;;5012717;28;20030;-78
2020/12/24 00:05:03;;;;;;;1.25;1.15;;;10.60;74.90;;;;;;5003820;28;20033;-78
2020/12/24 00:07:28;;;;;;;1.27;1.17;;;10.50;74.30;;;;;;5004983;28;20531;-78
2020/12/24 00:09:54;;;;;;;0.80;0.80;;;10.50;74.30;;;;;;5001035;28;20496;-78
2020/12/24 00:12:19;;;;;;;0.80;0.80;;;10.50;74.40;;;;;;5007252;28;20038;-78
2020/12/24 00:14:45;;;;;;;1.15;1.05;;;10.50;74.40;;;;;;5004757;28;20056;-78
2020/12/24 00:17:10;;;;;;;1.13;1.00;;;10.50;74.40;;;;;;5001693;28;20581;-78
2020/12/24 00:19:36;;;;;;;1.20;1.10;;;10.50;74.30;;;;;;5006534;28;20049;-78
2020/12/24 00:22:01;;;;;;;1.17;1.08;;;10.50;74.30;;;;;;5005625;28;20029;-78
2020/12/24 00:24:27;;;;;;;1.17;1.08;;;10.50;74.20;;;;;;5011044;28;20038;-78
2020/12/24 00:26:52;;;;;;;1.40;1.15;;;10.50;74.20;;;;;;5005554;28;20515;-77
2020/12/24 00:29:18;;;;;;;1.20;1.10;;;10.50;74.20;;;;;;5010485;28;20115;-78
2020/12/24 00:31:44;;;;;;;1.20;1.10;;;10.60;74.30;;;;;;5013342;28;20396;-78
2020/12/24 00:34:09;;;;;;;1.20;1.10;;;10.50;74.30;;;;;;4999035;28;20496;-77
2020/12/24 00:36:35;;;;;;;1.30;1.20;;;10.60;74.40;;;;;;5005176;28;20820;-77
2020/12/24 00:39:00;;;;;;;1.10;0.88;;;10.50;74.40;;;;;;5000259;28;20026;-77
2020/12/24 00:41:26;;;;;;;0.90;0.80;;;10.40;74.30;;;;;;5003426;28;20382;-77
2020/12/24 00:43:52;;;;;;;1.70;0.82;;;10.40;74.40;;;;;;5012027;28;20389;-77
2020/12/24 00:46:18;;;;;;;0.90;0.90;;;10.50;74.50;;;;;;5001162;28;20092;-77
2020/12/24 00:48:44;;;;;;;0.90;0.85;;;10.40;74.40;;;;;;5012158;28;20037;-77
2020/12/24 00:51:09;;;;;;;0.80;0.80;;;10.40;74.40;;;;;;5003657;28;20456;-77
2020/12/24 00:53:35;;;;;;;0.70;0.68;;;10.50;74.40;;;;;;5004383;28;20030;-77
2020/12/24 00:56:01;;;;;;;0.90;0.80;;;10.40;74.80;;;;;;4989866;28;20044;-78
2020/12/24 00:58:26;;;;;;;0.60;0.60;;;10.40;74.10;;;;;;5004637;28;20117;-78
2020/12/24 01:00:52;;;;;;;0.80;0.80;;;10.40;74.00;;;;;;5000364;28;20053;-78
2020/12/24 01:03:18;;;;;;;0.75;0.70;;;10.40;73.90;;;;;;5004778;28;20033;-79
2020/12/24 01:05:43;;;;;;;0.70;0.70;;;10.30;73.80;;;;;;5005552;28;20041;-79
2020/12/24 01:08:09;;;;;;;0.50;0.50;;;10.40;73.70;;;;;;4991032;28;20038;-79
2020/12/24 01:10:34;;;;;;;0.63;0.60;;;10.30;73.70;;;;;;5003666;28;20040;-79
2020/12/24 01:13:00;;;;;;;0.57;0.50;;;10.20;73.70;;;;;;5003032;28;20029;-78
2020/12/24 01:15:25;;;;;;;0.60;0.60;;;10.20;73.70;;;;;;5002854;28;20034;-79
2020/12/24 01:17:51;;;;;;;1.05;0.77;;;10.20;73.60;;;;;;5001262;28;20120;-79
2020/12/24 01:20:16;;;;;;;0.85;0.60;;;10.10;73.50;;;;;;4998845;28;20517;-79
2020/12/24 01:22:42;;;;;;;0.55;0.52;;;10.10;73.50;;;;;;5003995;28;20038;-79
2020/12/24 01:25:07;;;;;;;0.55;0.47;;;10.10;73.50;;;;;;5006150;28;20029;-79
2020/12/24 01:27:33;;;;;;;0.38;0.38;;;10.00;73.50;;;;;;5008140;28;20038;-79
2020/12/24 01:29:59;;;;;;;0.30;0.30;;;10.00;73.50;;;;;;5011993;28;20107;-79
2020/12/24 01:32:24;;;;;;;0.30;0.30;;;9.90;73.50;;;;;;5000647;28;20029;-78
2020/12/24 01:34:50;;;;;;;0.40;0.40;;;9.90;73.50;;;;;;5008702;28;20030;-78
2020/12/24 01:37:15;;;;;;;0.73;0.60;;;9.90;73.50;;;;;;5003871;28;20038;-78
2020/12/24 01:39:41;;;;;;;0.38;0.32;;;9.80;73.50;;;;;;5009741;28;20029;-78
2020/12/24 01:42:06;;;;;;;0.35;0.35;;;9.80;73.50;;;;;;5003151;28;20164;-79
2020/12/24 01:44:32;;;;;;;0.30;0.30;;;9.80;73.50;;;;;;4990341;28;20104;-79
2020/12/24 01:46:58;;;;;;;0.40;0.22;;;9.70;73.50;;;;;;5008615;28;20037;-79
2020/12/24 01:49:23;;;;;;;0.57;0.30;;;9.70;73.50;;;;;;5002339;28;21627;-79
2020/12/24 01:51:56;;;;;;;0.20;0.20;;;9.70;73.60;;;;;;4992302;28;20571;-78
2020/12/24 01:54:25;;;;;;;0.20;0.20;;;9.70;73.70;;;;;;4999843;28;20033;-79
2020/12/24 01:56:51;;;;;;;0.25;0.20;;;9.60;73.60;;;;;;5014126;28;20040;-79
2020/12/24 01:59:20;;;;;;;0.38;0.28;;;9.60;73.60;;;;;;4985739;28;20029;-79
2020/12/24 02:01:47;;;;;;;0.10;0.10;;;9.60;73.70;;;;;;5010557;28;20161;-79
2020/12/24 02:04:13;;;;;;;0.10;0.10;;;9.60;73.80;;;;;;5007732;28;20033;-78
2020/12/24 02:06:40;;;;;;;0.10;0.10;;;9.50;73.70;;;;;;5012644;28;20034;-79
2020/12/24 02:09:06;;;;;;;0.10;0.10;;;9.50;73.70;;;;;;5016434;28;20029;-79
2020/12/24 02:11:32;;;;;;;0.10;0.10;;;9.50;73.70;;;;;;5008669;28;20041;-79
2020/12/24 02:13:58;;;;;;;0.20;0.10;;;9.50;73.70;;;;;;5013961;28;20123;-79
2020/12/24 02:16:24;;;;;;;0.20;0.20;;;9.50;73.70;;;;;;5006367;28;20033;-78
2020/12/24 02:18:49;;;;;;;0.10;0.10;;;9.50;73.70;;;;;;5012736;28;20037;-78
2020/12/24 02:21:15;;;;;;;0.10;0.10;;;9.40;73.60;;;;;;5006370;28;20036;-78
2020/12/24 02:23:40;;;;;;;0.30;0.20;;;9.50;73.60;;;;;;5014406;28;20021;-79
2020/12/24 02:26:06;;;;;;;0.20;0.20;;;9.50;73.60;;;;;;5012400;28;20083;-78
2020/12/24 02:28:31;;;;;;;0.20;0.20;;;9.40;73.50;;;;;;5003389;28;20036;-78
2020/12/24 02:30:57;;;;;;;0.65;0.30;;;9.30;73.50;;;;;;5007758;28;20084;-78
2020/12/24 02:33:23;;;;;;;0.20;0.20;;;9.40;73.60;;;;;;5000816;28;20028;-79
2020/12/24 02:35:48;;;;;;;0.10;0.10;;;9.30;73.60;;;;;;5004225;28;20049;-78
2020/12/24 02:38:14;;;;;;;0.20;0.20;;;9.30;73.60;;;;;;4994248;28;20037;-78
2020/12/24 02:40:40;;;;;;;0.10;0.10;;;9.30;73.70;;;;;;5007552;28;20086;-78
2020/12/24 02:43:05;;;;;;;0.57;0.30;;;9.30;73.70;;;;;;5013272;28;20033;-78
2020/12/24 02:45:31;;;;;;;0.30;0.20;;;9.30;73.70;;;;;;5023685;28;20404;-78
2020/12/24 02:47:56;;;;;;;0.35;0.20;;;9.20;74.10;;;;;;5028758;28;20052;-78
2020/12/24 02:50:22;;;;;;;0.20;0.20;;;9.40;73.70;;;;;;5029747;28;20092;-78
2020/12/24 02:52:48;;;;;;;0.40;0.30;;;9.20;73.50;;;;;;5024629;28;20084;-78
2020/12/24 02:55:14;;;;;;;0.52;0.30;;;9.20;73.50;;;;;;5024443;28;20041;-78
2020/12/24 02:57:39;;;;;;;0.30;0.20;;;9.10;73.50;;;;;;5029852;28;20048;-79
2020/12/24 03:00:08;;;;;;;0.20;0.20;;;9.10;73.50;;;;;;5028266;28;20465;-79
2020/12/24 03:02:34;;;;;;;0.30;0.25;;;9.10;73.60;;;;;;5031109;28;20528;-79
2020/12/24 03:04:59;;;;;;;0.28;0.17;;;9.10;73.60;;;;;;5029981;28;20064;-79
2020/12/24 03:07:25;;;;;;;0.15;0.15;;;9.00;73.60;;;;;;5025328;28;20124;-79
2020/12/24 03:09:50;;;;;;;0.10;0.10;;;9.10;73.60;;;;;;5028083;28;20029;-79
2020/12/24 03:12:16;;;;;;;0.10;0.10;;;9.10;73.60;;;;;;5026721;28;20017;-79
2020/12/24 03:14:41;;;;;;;0.20;0.20;;;9.00;74.00;;;;;;5027502;28;20530;-79
2020/12/24 03:17:07;;;;;;;0.17;0.17;;;9.10;73.50;;;;;;5026024;28;20025;-79
2020/12/24 03:19:32;;;;;;;0.10;0.10;;;9.00;73.40;;;;;;5026881;28;20493;-79
2020/12/24 03:21:58;;;;;;;0.30;0.22;;;9.00;73.30;;;;;;5026510;28;20024;-79
2020/12/24 03:24:24;;;;;;;0.30;0.30;;;9.00;73.30;;;;;;5024113;28;20072;-79
2020/12/24 03:26:49;;;;;;;0.10;0.10;;;9.00;73.30;;;;;;5030430;28;20029;-80
2020/12/24 03:29:15;;;;;;;1.00;0.20;;;8.90;73.20;;;;;;5030639;28;20120;-79
2020/12/24 03:31:40;;;;;;;0.17;0.17;;;8.90;73.00;;;;;;5033232;28;20398;-80
2020/12/24 03:34:06;;;;;;;0.55;0.30;;;8.90;73.00;;;;;;5012316;28;20041;-79
2020/12/24 03:36:31;;;;;;;0.20;0.20;;;8.80;72.80;;;;;;5024659;28;20034;-80
2020/12/24 03:38:57;;;;;;;0.20;0.10;;;8.70;72.70;;;;;;5022893;28;20026;-79
2020/12/24 03:41:22;;;;;;;0.10;0.10;;;8.70;72.80;;;;;;5021323;28;20026;-79
2020/12/24 03:43:48;;;;;;;0.43;0.20;;;8.70;72.90;;;;;;5022893;28;20053;-79
2020/12/24 03:46:13;;;;;;;0.50;0.10;;;8.60;72.90;;;;;;5024673;28;20366;-79
2020/12/24 03:48:39;;;;;;;0.00;0.00;;;8.60;73.00;;;;;;5029603;28;20037;-79
2020/12/24 03:51:04;;;;;;;0.08;0.05;;;8.50;73.00;;;;;;5022846;28;20032;-78
2020/12/24 03:53:30;;;;;;;0.08;0.08;;;8.50;73.20;;;;;;5020923;28;20120;-78
2020/12/24 03:55:55;;;;;;;0.20;0.20;;;8.50;73.20;;;;;;5015268;28;20029;-78
2020/12/24 03:58:21;;;;;;;0.10;0.10;;;8.50;73.30;;;;;;5018191;28;20037;-78
2020/12/24 04:00:46;;;;;;;0.10;0.03;;;8.50;73.40;;;;;;5019783;28;20041;-78
2020/12/24 04:03:12;;;;;;;0.45;0.20;;;8.50;73.40;;;;;;5017391;28;20034;-78
2020/12/24 04:05:37;;;;;;;0.20;0.20;;;8.50;73.40;;;;;;5012339;28;20034;-78
2020/12/24 04:08:05;;;;;;;0.10;0.10;;;8.40;73.40;;;;;;5018616;28;20033;-78
2020/12/24 04:10:31;;;;;;;0.20;0.20;;;8.40;73.40;;;;;;5019483;28;20412;-78
2020/12/24 04:12:56;;;;;;;0.40;0.38;;;8.40;73.40;;;;;;5019380;28;20051;-78
2020/12/24 04:15:21;;;;;;;0.45;0.45;;;8.40;73.40;;;;;;5018333;28;20033;-78
2020/12/24 04:17:47;;;;;;;1.20;0.55;;;8.30;73.30;;;;;;5023282;28;20029;-77
2020/12/24 04:20:12;;;;;;;0.57;0.57;;;8.30;73.30;;;;;;5015498;28;20036;-78
2020/12/24 04:22:38;;;;;;;0.73;0.40;;;8.30;73.30;;;;;;5021500;28;20497;-78
2020/12/24 04:25:03;;;;;;;0.82;0.80;;;8.30;73.40;;;;;;5022528;28;20515;-78
2020/12/24 04:27:30;;;;;;;2.15;0.70;;;8.40;73.50;;;;;;5021248;28;20091;-78
2020/12/24 04:29:56;;;;;;;1.48;1.02;;;8.30;73.40;;;;;;5011617;28;20052;-78
2020/12/24 04:32:21;;;;;;;1.48;1.25;;;8.30;73.50;;;;;;5023320;28;20056;-78
2020/12/24 04:34:47;;;;;;;1.30;1.17;;;8.30;73.50;;;;;;5019820;28;20103;-78
2020/12/24 04:37:15;;;;;;;1.17;0.95;;;8.30;73.40;;;;;;4997622;28;20038;-79
2020/12/24 04:39:41;;;;;;;1.15;1.02;;;8.30;73.40;;;;;;5011688;28;20038;-78
2020/12/24 04:42:06;;;;;;;1.08;0.75;;;8.20;73.80;;;;;;5011018;28;20121;-78
2020/12/24 04:44:33;;;;;;;0.98;0.70;;;8.20;73.20;;;;;;5010381;28;20034;-78
2020/12/24 04:46:59;;;;;;;1.65;0.50;;;8.20;73.10;;;;;;5001779;28;20030;-78
2020/12/24 04:49:25;;;;;;;0.65;0.65;;;8.20;73.10;;;;;;5025327;28;20029;-78
2020/12/24 04:51:51;;;;;;;0.75;0.57;;;8.20;72.80;;;;;;5022223;28;20460;-78
2020/12/24 04:54:17;;;;;;;0.30;0.30;;;8.10;72.80;;;;;;5019845;28;20053;-79
2020/12/24 04:56:43;;;;;;;0.70;0.55;;;8.10;72.80;;;;;;5003098;28;20061;-78
2020/12/24 04:59:09;;;;;;;0.82;0.43;;;8.00;72.80;;;;;;5023600;28;20076;-79
2020/12/24 05:01:34;;;;;;;0.65;0.43;;;8.00;72.80;;;;;;5016971;28;20109;-79
2020/12/24 05:04:00;;;;;;;0.40;0.40;;;7.90;72.70;;;;;;5026016;28;20092;-78
2020/12/24 05:06:26;;;;;;;0.30;0.20;;;7.90;72.80;;;;;;5020441;28;20037;-79
2020/12/24 05:08:58;;;;;;;0.32;0.22;;;7.90;72.90;;;;;;5019745;28;20018;-78
2020/12/24 05:11:33;;;;;;;0.28;0.28;;;7.90;72.80;;;;;;5018041;28;20041;-78
2020/12/24 05:14:26;;;;;;;0.20;0.17;;;7.90;72.80;;;;;;5018428;28;20033;-78
2020/12/24 05:17:04;;;;;;;0.55;0.50;;;7.90;72.80;;;;;;5017689;28;20022;-77
2020/12/24 05:19:33;;;;;;;0.60;0.30;;;7.80;73.20;;;;;;5020806;28;20025;-78
2020/12/24 05:22:09;;;;;;;0.60;0.38;;;7.80;72.90;;;;;;5018194;28;20022;-78
2020/12/24 05:24:34;;;;;;;0.52;0.50;;;7.80;72.90;;;;;;5020506;28;20021;-78
2020/12/24 05:27:08;;;;;;;0.57;0.32;;;7.70;72.90;;;;;;5022565;28;20036;-78
2020/12/24 05:29:39;;;;;;;0.57;0.50;;;7.70;73.00;;;;;;5015375;28;20083;-78
2020/12/24 05:32:05;;;;;;;0.35;0.35;;;7.70;73.00;;;;;;5024312;28;20577;-79
2020/12/24 05:34:31;;;;;;;0.50;0.40;;;7.70;73.10;;;;;;5022879;28;20064;-78
2020/12/24 05:37:13;;;;;;;0.30;0.30;;;7.70;73.10;;;;;;5021322;28;20448;-78
2020/12/24 05:39:41;;;;;;;0.22;0.20;;;7.70;73.20;;;;;;5020701;28;20037;-78
2020/12/24 05:42:07;;;;;;;0.55;0.43;;;7.70;73.20;;;;;;5023462;28;20034;-78
2020/12/24 05:44:33;;;;;;;0.40;0.40;;;7.60;73.20;;;;;;5026640;28;20053;-78
2020/12/24 05:46:58;;;;;;;0.52;0.40;;;7.60;73.30;;;;;;5020805;28;20531;-78
2020/12/24 05:49:25;;;;;;;0.45;0.40;;;7.60;73.40;;;;;;5026676;28;20092;-79
2020/12/24 05:51:57;;;;;;;0.75;0.60;;;7.60;73.40;;;;;;5021095;28;20116;-78
2020/12/24 05:54:24;;;;;;;0.93;0.65;;;7.70;73.60;;;;;;5008840;28;20117;-78
2020/12/24 05:56:51;;;;;;;0.85;0.70;;;7.60;73.60;;;;;;5021388;28;20030;-78
2020/12/24 05:59:18;;;;;;;0.40;0.40;;;7.60;73.60;;;;;;5018199;28;20034;-78
2020/12/24 06:02:17;;;;;;;1.83;0.57;;;7.60;73.70;;;;;;5026035;28;20034;-77
2020/12/24 06:04:42;;;;;;;0.47;0.40;;;7.70;73.90;;;;;;5022340;28;20088;-78
2020/12/24 06:07:08;;;;;;;0.55;0.47;;;7.70;73.80;;;;;;5021453;28;20489;-78
2020/12/24 06:09:38;;;;;;;0.63;0.50;;;7.70;73.80;;;;;;5014344;28;20034;-77
2020/12/24 06:12:18;;;;;;;1.33;0.85;;;7.70;73.90;;;;;;5017910;28;20081;-78
2020/12/24 06:14:47;;;;;;;0.55;0.45;;;7.70;73.90;;;;;;5028233;28;20072;-78
2020/12/24 06:17:23;;;;;;;0.75;0.50;;;7.70;73.80;;;;;;5018620;28;20030;-78
2020/12/24 06:19:49;;;;;;;0.20;0.20;;;7.70;73.70;;;;;;5017515;28;20404;-77
2020/12/24 06:22:16;;;;;;;0.60;0.50;;;7.80;73.80;;;;;;5018512;28;20084;-77
2020/12/24 06:24:57;;;;;;;0.55;0.40;;;7.70;73.70;;;;;;5020041;28;20066;-77
2020/12/24 06:27:37;;;;;;;1.00;0.20;;;7.70;74.20;;;;;;5016788;28;20033;-78
2020/12/24 06:30:05;;;;;;;0.45;0.43;;;7.80;74.30;;;;;;5017786;28;20671;-78
2020/12/24 06:32:37;;;;;;;0.50;0.20;;;7.80;73.70;;;;;;5017439;28;20124;-78
2020/12/24 06:35:03;;;;;;;0.65;0.30;;;7.70;73.60;;;;;;5020780;28;20033;-78
2020/12/24 06:37:39;;;;;;;0.50;0.30;;;7.70;73.60;;;;;;5011522;28;20413;-78
2020/12/24 06:40:05;;;;;;;0.57;0.20;;;7.80;73.70;;;;;;5019417;28;20038;-78
2020/12/24 06:42:36;;;;;;;0.13;0.10;;;7.80;73.70;;;;;;5019607;28;20084;-78
2020/12/24 06:45:08;;;;;;;0.20;0.20;;;7.90;73.80;;;;;;5013964;28;20029;-78
2020/12/24 06:47:34;;;;;;;0.28;0.17;;;7.80;73.60;;;;;;5024043;28;20120;-78
2020/12/24 06:49:59;;;;;;;0.98;0.20;;;7.80;73.60;;;;;;5009587;28;20113;-78
2020/12/24 06:52:29;;;;;;;0.25;0.22;;;7.80;73.60;;;;;;5007237;28;20116;-77
2020/12/24 06:55:15;;;;;;;1.08;0.32;;;7.80;73.60;;;;;;5005921;28;20037;-78
2020/12/24 06:57:42;;;;;;;0.60;0.38;;;7.80;73.60;;;;;;5005309;28;20115;-78
2020/12/24 07:00:19;;;;;;;0.40;0.30;;;7.80;73.60;;;;;;5002917;28;20084;-78
2020/12/24 07:02:46;;;;;;;0.40;0.40;;;7.80;73.70;;;;;;4966065;28;20041;-78
2020/12/24 07:05:45;;;;;;;0.57;0.40;;;7.80;73.60;;;;;;5005862;28;20093;-78
2020/12/24 07:08:31;;;;;;;0.30;0.25;;;7.80;73.70;;;;;;5027269;28;20037;-77
2020/12/24 07:10:57;;;;;;;0.70;0.38;;;7.80;73.60;;;;;;5026681;28;20064;-77
2020/12/24 07:13:40;;;;;;;0.80;0.47;;;7.80;73.60;;;;;;5019077;28;20117;-77
2020/12/24 07:16:07;;;;;;;0.82;0.40;;;7.80;73.60;;;;;;5018569;28;20455;-77
2020/12/24 07:18:38;;;;;;;2.67;1.55;;;7.80;73.60;;;;;;5024360;28;20108;-77
2020/12/24 07:21:08;;;;;;;0.93;0.35;;;7.80;73.60;;;;;;5019364;28;20041;-77
2020/12/24 07:23:36;;;;;;;0.55;0.50;;;7.80;73.60;;;;;;5024188;28;20022;-78
2020/12/24 07:26:06;;;;;;;2.67;1.52;;;7.80;73.60;;;;;;5022371;28;20033;-77
2020/12/24 07:28:35;;;;;;;0.38;0.30;;;7.80;73.50;;;;;;5021114;28;20030;-77
2020/12/24 07:31:03;;;;;;;0.47;0.30;;;7.80;73.50;;;;;;5024362;28;20397;-77
2020/12/24 07:33:29;;;;;;;1.92;0.40;;;7.80;73.40;;;;;;5024165;28;20022;-78
2020/12/24 07:35:55;;;;;;;0.93;0.50;;;7.90;73.50;;;;;;5023613;28;20045;-77
2020/12/24 07:38:26;;;;;;;0.30;0.30;;;7.80;73.50;;;;;;5015618;28;20034;-77
2020/12/24 07:40:51;;;;;;;0.40;0.20;;;7.80;73.50;;;;;;5017989;28;20115;-78
2020/12/24 07:43:17;;;;;;;0.63;0.30;;;7.80;73.50;;;;;;5019081;28;20073;-78
2020/12/24 07:45:44;;;;;;;0.50;0.20;;;7.90;73.60;;;;;;5019098;28;20796;-76
2020/12/24 07:48:31;;;;;;;0.73;0.38;;;7.80;73.60;;;;;;5023995;28;20138;-78
2020/12/24 07:50:56;;;;;;;1.80;0.70;;;7.90;73.70;;;;;;5027396;28;20040;-76
2020/12/24 07:53:24;;;;;;;0.40;0.30;;;7.80;73.60;;;;;;5024059;28;20026;-76
2020/12/24 07:55:50;;;;;;;0.45;0.30;;;7.90;73.70;;;;;;5011110;28;20033;-76
2020/12/24 07:58:18;;;;;;;0.40;0.30;;;7.90;73.70;;;;;;5022191;28;20045;-76
2020/12/24 08:00:43;;;;;;;0.50;0.35;;;7.80;73.70;;;;;;5028251;28;20084;-76
2020/12/24 08:03:09;;;;;;;0.30;0.20;;;7.90;73.70;;;;;;5023353;28;20500;-77
2020/12/24 08:05:35;;;;;;;0.73;0.40;;;7.90;73.80;;;;;;5018199;28;20061;-77
2020/12/24 08:08:00;;;;;;;0.45;0.30;;;7.90;73.80;;;;;;5026679;28;20498;-78
2020/12/24 08:10:26;;;;;;;0.57;0.40;;;8.00;73.90;;;;;;5012635;28;20093;-76
2020/12/24 08:12:52;;;;;;;0.57;0.32;;;8.00;73.90;;;;;;5014953;28;20037;-73
2020/12/24 08:15:18;;;;;;;1.35;0.50;;;8.00;73.90;;;;;;5020250;28;20496;-77
2020/12/24 08:18:03;;;;;;;0.98;0.35;;;8.00;73.90;;;;;;5020052;28;20030;-77
2020/12/24 08:21:15;;;;;;;0.55;0.50;;;7.90;73.90;;;;;;5014146;28;20037;-77
2020/12/24 08:23:48;;;;;;;1.42;0.43;;;8.00;74.00;;;;;;5018696;28;20025;-77
2020/12/24 08:26:15;;;;;;;3.33;0.65;;;8.00;73.90;;;;;;5018577;28;20033;-77
2020/12/24 08:28:58;;;;;;;0.55;0.30;;;8.10;74.00;;;;;;5018409;28;20117;-77
2020/12/24 08:31:26;;;;;;;0.50;0.38;;;8.10;74.10;;;;;;5019316;28;20432;-77
2020/12/24 08:33:53;;;;;;;0.73;0.60;;;8.10;74.00;;;;;;5020519;28;20080;-77
2020/12/24 08:36:26;;;;;;;1.33;0.52;;;8.10;74.00;;;;;;5023001;28;20160;-77
2020/12/24 08:39:06;;;;;;;1.33;0.65;;;8.20;74.00;;;;;;5020517;28;20029;-77
2020/12/24 08:41:35;;;;;;;0.63;0.50;;;8.20;74.00;;;;;;5023324;28;20399;-77
2020/12/24 08:44:03;;;;;;;0.93;0.85;;;8.20;74.50;;;;;;5019900;28;20111;-77
2020/12/24 08:46:29;;;;;;;1.30;0.45;;;8.30;74.00;;;;;;5024445;28;20563;-77
2020/12/24 08:48:54;;;;;;;0.47;0.40;;;8.20;74.00;;;;;;5028231;28;20037;-77
2020/12/24 08:51:20;;;;;;;1.27;0.50;;;8.20;74.10;;;;;;5027300;28;20121;-77
2020/12/24 08:53:46;;;;;;;0.82;0.60;;;8.30;74.20;;;;;;5027231;28;20041;-77
2020/12/24 08:56:18;;;;;;;0.40;0.40;;;8.30;74.20;;;;;;5026288;28;20064;-77
2020/12/24 08:58:52;;;;;;;0.93;0.45;;;8.30;74.20;;;;;;5024295;28;20558;-77
2020/12/24 09:01:18;;;;;;;0.82;0.40;;;8.40;74.30;;;;;;5003296;28;20040;-77
2020/12/24 09:03:45;;;;;;;1.05;0.52;;;8.40;74.30;;;;;;5022399;28;20026;-77
2020/12/24 09:06:15;;;;;;;1.15;0.73;;;8.40;74.30;;;;;;5021156;28;20130;-78
2020/12/24 09:08:48;;;;;;;;;;;8.50;74.30;;;;;;5027541;28;20034;-77
2020/12/24 09:11:31;;;;;;;1.38;0.55;;;8.50;74.40;;;;;;5022020;28;19948;-77
2020/12/24 09:14:02;;;;;;;1.27;0.60;;;8.60;73.90;;;;;;5026398;28;20112;-77
2020/12/24 09:16:31;;;;;;;1.05;0.68;;;8.50;73.80;;;;;;5027179;28;20493;-77
2020/12/24 09:19:07;;;;;;;0.40;0.38;;;8.50;73.90;;;;;;5008040;28;20021;-76
2020/12/24 09:21:34;;;;;;;0.65;0.50;;;8.60;74.00;;;;;;5020892;28;20030;-77
2020/12/24 09:24:07;;;;;;;1.00;0.75;;;8.60;73.90;;;;;;5024592;28;20033;-76
2020/12/24 09:26:50;;;;;;;1.50;0.82;;;8.60;73.90;;;;;;5018336;28;20105;-76
2020/12/24 09:29:16;;;;;;;0.73;0.70;;;8.60;73.90;;;;;;5019082;28;20056;-76
2020/12/24 09:32:00;;;;;;;1.48;0.50;;;8.60;73.90;;;;;;5024219;28;20030;-76
2020/12/24 09:34:28;;;;;;;1.13;0.80;;;8.60;73.90;;;;;;5040596;23;20551;-74
2020/12/24 09:36:53;;;;;;;0.77;0.68;;;8.60;73.80;;;;;;5016087;28;20022;-75
2020/12/24 09:39:19;;;;;;;0.90;0.77;;;8.70;74.40;;;;;;5009145;28;20045;-75
2020/12/24 09:41:47;;;;;;;0.52;0.50;;;8.70;73.90;;;;;;5011029;28;20034;-75
2020/12/24 09:44:13;;;;;;;0.98;0.80;;;8.70;73.90;;;;;;4993011;28;20026;-75
2020/12/24 09:46:38;;;;;;;0.45;0.45;;;8.70;73.90;;;;;;4987040;28;20021;-75
2020/12/24 09:49:04;;;;;;;0.75;0.60;;;8.70;73.90;;;;;;4978329;28;20031;-76
2020/12/24 09:51:35;;;;;;;0.85;0.63;;;8.70;73.90;;;;;;4989099;28;20030;-76
2020/12/24 09:54:01;;;;;;;1.35;0.60;;;8.80;74.00;;;;;;4993582;28;20036;-74
2020/12/24 09:56:27;;;;;;;2.28;0.90;;;8.80;74.00;;;;;;4996011;28;20661;-74
2020/12/24 09:58:53;;;;;;;1.85;0.60;;;8.70;73.90;;;;;;4970944;28;20030;-75
2020/12/24 10:01:18;;;;;;;0.93;0.70;;;8.80;73.90;;;;;;4989496;28;20033;-75
2020/12/24 10:03:44;;;;;;;1.83;0.85;;;8.80;74.00;;;;;;4989477;28;20092;-76
2020/12/24 10:06:09;;;;;;;0.70;0.70;;;8.90;74.00;;;;;;4983993;28;20557;-74
2020/12/24 10:08:35;;;;;;;0.85;0.77;;;8.80;73.90;;;;;;4988472;28;20031;-73
2020/12/24 10:11:00;;;;;;;0.90;0.52;;;8.80;74.00;;;;;;4988427;28;20023;-75
2020/12/24 10:13:26;;;;;;;1.52;0.60;;;8.80;74.00;;;;;;4981315;28;20456;-73
2020/12/24 10:15:51;;;;;;;1.00;0.70;;;8.80;74.00;;;;;;4984567;28;20034;-74
2020/12/24 10:18:17;;;;;;;0.75;0.55;;;8.80;73.90;;;;;;4986821;28;20026;-75
2020/12/24 10:20:43;;;;;;;1.88;0.60;;;8.80;73.90;;;;;;4988273;28;20062;-75
2020/12/24 10:23:10;;;;;;;0.57;0.57;;;8.80;73.90;;;;;;4988464;28;20027;-72
2020/12/24 10:25:37;;;;;;;0.70;0.70;;;8.80;73.90;;;;;;4988692;28;20502;-75
2020/12/24 10:28:03;;;;;;;2.58;0.65;;;8.90;74.00;;;;;;4990499;28;20117;-75
2020/12/24 10:30:28;;;;;;;0.70;0.65;;;8.80;73.90;;;;;;4986486;28;20126;-74
2020/12/24 10:32:54;;;;;;;0.95;0.52;;;8.80;73.80;;;;;;4989102;28;20120;-75
2020/12/24 10:35:19;;;;;;;1.20;0.60;;;8.90;73.80;;;;;;4987908;28;20053;-75
2020/12/24 10:37:45;;;;;;;1.15;0.90;;;8.90;73.70;;;;;;4971723;28;20038;-75
2020/12/24 10:40:10;;;;;;;0.50;0.40;;;8.90;73.60;;;;;;4989620;28;20027;-75
2020/12/24 10:42:38;;;;;;;1.35;0.73;;;8.90;73.50;;;;;;4989362;28;20037;-74
2020/12/24 10:45:04;;;;;;;0.63;0.52;;;8.90;73.50;;;;;;4989395;28;20393;-75
2020/12/24 10:47:29;;;;;;;0.85;0.52;;;8.90;73.50;;;;;;4988601;28;20037;-75
2020/12/24 10:49:55;;;;;;;0.80;0.50;;;8.90;73.70;;;;;;4987829;28;20453;-76
2020/12/24 10:52:20;;;;;;;0.80;0.50;;;8.80;73.70;;;;;;4988588;28;20546;-75
2020/12/24 10:54:46;;;;;;;0.68;0.50;;;8.90;73.90;;;;;;4993793;28;20041;-75
2020/12/24 10:57:11;;;;;;;0.82;0.60;;;8.90;73.90;;;;;;4994724;28;20061;-75
2020/12/24 10:59:37;;;;;;;0.82;0.52;;;8.80;73.90;;;;;;4990525;28;20432;-74
2020/12/24 11:02:02;;;;;;;0.52;0.35;;;9.00;74.20;;;;;;4994263;28;20092;-75
2020/12/24 11:04:29;;;;;;;0.82;0.50;;;8.80;74.60;;;;;;4989365;28;20117;-75
2020/12/24 11:06:55;;;;;;;0.90;0.63;;;8.90;74.10;;;;;;4988768;28;20033;-73
2020/12/24 11:09:21;;;;;;;1.30;0.50;;;8.90;74.20;;;;;;4988597;28;20030;-75
2020/12/24 11:11:46;;;;;;;0.95;0.57;;;8.90;74.30;;;;;;4988360;28;20030;-75
2020/12/24 11:14:12;;;;;;;0.77;0.50;;;9.00;74.40;;;;;;4990115;28;20092;-75
2020/12/24 11:16:37;;;;;;;0.75;0.70;;;8.90;74.30;;;;;;4991933;28;20072;-75
2020/12/24 11:19:03;;;;;;;1.10;0.52;;;9.00;74.40;;;;;;4988044;28;20100;-75
2020/12/24 11:21:31;;;;;;;0.95;0.65;;;9.10;74.50;;;;;;4986238;28;20026;-75
2020/12/24 11:23:56;;;;;;;2.25;0.50;;;9.10;74.50;;;;;;4988171;28;20050;-75
2020/12/24 11:26:23;;;;;;;0.55;0.50;;;9.10;74.50;;;;;;4988328;28;20104;-74
2020/12/24 11:28:50;;;;;;;0.73;0.52;;;9.10;74.50;;;;;;4987304;28;20030;-75
2020/12/24 11:31:25;;;;;;;1.10;0.50;;;9.10;74.50;;;;;;4984246;28;20045;-75
2020/12/24 11:33:50;;;;;;;1.20;0.70;;;9.10;74.50;;;;;;4990284;28;20124;-75
2020/12/24 11:36:16;;;;;;;0.90;0.60;;;9.20;74.50;;;;;;4992186;28;20204;-75
2020/12/24 11:38:41;;;;;;;1.05;0.68;;;9.30;74.60;;;;;;4988812;28;20030;-75
2020/12/24 11:41:15;;;;;;;0.70;0.70;;;9.30;74.60;;;;;;4987887;28;20433;-75
2020/12/24 11:43:41;;;;;;;0.63;0.43;;;9.30;74.70;;;;;;4981603;28;20050;-75
2020/12/24 11:46:08;;;;;;;1.27;0.40;;;9.40;74.70;;;;;;4986399;28;20046;-75
2020/12/24 11:48:34;;;;;;;1.00;0.60;;;9.30;74.60;;;;;;4993260;28;20034;-73
2020/12/24 11:50:59;;;;;;;1.25;0.50;;;9.40;74.70;;;;;;4986425;28;20030;-75
2020/12/24 11:53:25;;;;;;;1.15;0.40;;;9.50;74.70;;;;;;4987018;28;20038;-75
2020/12/24 11:55:50;;;;;;;0.52;0.43;;;9.50;74.70;;;;;;4979793;28;20433;-74
2020/12/24 11:58:17;;;;;;;0.73;0.55;;;9.50;74.60;;;;;;4986352;28;20045;-75
2020/12/24 12:00:43;;;;;;;0.68;0.40;;;9.50;74.50;;;;;;4967610;28;20045;-75
2020/12/24 12:03:08;;;;;;;1.35;0.57;;;9.60;74.60;;;;;;4961120;28;20046;-74
2020/12/24 12:05:34;;;;;;;1.17;0.50;;;9.60;74.60;;;;;;4974838;28;20027;-74
2020/12/24 12:07:59;;;;;;;1.70;0.50;;;9.70;74.60;;;;;;4984873;28;20117;-73
2020/12/24 12:10:25;;;;;;;2.05;0.60;;;9.70;74.60;;;;;;4975652;28;20022;-71
2020/12/24 12:12:50;;;;;;;1.20;0.30;;;9.70;74.60;;;;;;4985702;28;20041;-74
2020/12/24 12:15:16;;;;;;;2.55;0.70;;;9.70;74.60;;;;;;4984648;28;20093;-74
2020/12/24 12:17:41;;;;;;;1.85;0.32;;;9.80;74.60;;;;;;4985009;28;20464;-74
2020/12/24 12:20:07;;;;;;;1.77;0.60;;;9.80;74.60;;;;;;4978567;28;20034;-73
2020/12/24 12:22:32;;;;;;;1.17;0.52;;;9.90;74.70;;;;;;4977825;28;20602;-73
2020/12/24 12:24:58;;;;;;;0.65;0.32;;;9.80;74.50;;;;;;4977823;28;20034;-73
2020/12/24 12:27:23;;;;;;;0.75;0.20;;;9.90;74.50;;;;;;4986863;28;20109;-75
2020/12/24 12:29:49;;;;;;;1.15;0.45;;;9.90;74.40;;;;;;4982487;28;20118;-75
2020/12/24 12:32:15;;;;;;;0.60;0.30;;;10.00;74.30;;;;;;4979849;28;20089;-74
2020/12/24 12:34:40;;;;;;;0.40;0.20;;;10.00;74.30;;;;;;4987353;28;20042;-75
2020/12/24 12:37:05;;;;;;;0.60;0.28;;;10.00;74.30;;;;;;4989564;28;20070;-75
2020/12/24 12:39:31;;;;;;;1.10;0.50;;;10.10;74.30;;;;;;4989177;28;20026;-75
2020/12/24 12:41:56;;;;;;;0.40;0.30;;;10.10;74.20;;;;;;4986140;28;20062;-75
2020/12/24 12:44:22;;;;;;;3.00;1.40;;;10.10;74.20;;;;;;4984551;28;20026;-76
2020/12/24 12:46:47;;;;;;;1.15;0.43;;;10.10;74.10;;;;;;4987083;28;20113;-74
2020/12/24 12:49:13;;;;;;;0.30;0.30;;;10.10;74.00;;;;;;4989504;28;20038;-75
2020/12/24 12:51:38;;;;;;;1.95;0.20;;;10.20;74.00;;;;;;4984567;28;20035;-75
2020/12/24 12:54:04;;;;;;;0.98;0.30;;;10.10;73.90;;;;;;4988611;28;20473;-73
2020/12/24 12:56:30;;;;;;;1.13;0.40;;;10.10;73.80;;;;;;4980894;28;20034;-75